Latest Weather Observations for Noarlunga

IDS60901

Issued at 9:11 pm CST Saturday 4 July 2015 (issued every 10 minutes, with the page automatically refreshed every 10 minutes)

About weather observations | Map of Adelaide area stations | Latest observations for Adelaide area | Other Formats
Station Details ID: 023885 Name: NOARLUNGA Lat: -35.16 Lon: 138.51 Height: 55.0 m
Data from the previous 72 hours. | See also: Recent months at Noarlunga
Date/Time
CST
Tmp

°C
App
Tmp
°C
Dew
Point
°C
Rel
Hum
%
Delta-T

°C
Wind Press
QNH
hPa
Press
MSL
hPa
Rain
since
9 am
mm
Dir
 
Spd
km/h
Gust
km/h
Spd
kts
Gust
kts
04/09:00pm 10.9 8.2 5.7 70 2.4 NE 9 11 5 6 - - 0.0
04/08:30pm 10.7 8.0 5.7 71 2.3 NE 9 13 5 7 - - 0.0
04/08:00pm 10.7 8.4 5.5 70 2.4 ENE 7 11 4 6 - - 0.0
04/07:30pm 11.3 9.0 5.8 69 2.6 NE 7 11 4 6 - - 0.0
04/07:00pm 11.5 9.2 5.8 68 2.7 NE 7 11 4 6 - - 0.0
04/06:30pm 11.6 8.9 5.7 67 2.7 ENE 9 11 5 6 - - 0.0
04/06:00pm 12.3 10.2 5.7 64 3.1 NE 6 7 3 4 - - 0.0
04/05:30pm 12.8 11.3 5.2 60 3.5 N 2 2 1 1 - - 0.0
04/05:00pm 14.2 11.9 5.6 56 4.1 N 7 11 4 6 - - 0.0
04/04:30pm 14.8 11.6 5.3 53 4.5 N 11 15 6 8 - - 0.0
04/04:00pm 15.0 11.2 5.8 54 4.4 N 15 17 8 9 - - 0.0
04/03:30pm 15.2 12.1 5.4 52 4.7 NNW 11 15 6 8 - - 0.0
04/03:00pm 15.2 12.1 5.4 52 4.7 NNW 11 17 6 9 - - 0.0
04/02:30pm 15.3 12.2 5.5 52 4.7 NNW 11 17 6 9 - - 0.0
04/02:00pm 15.0 11.9 5.5 53 4.5 NNW 11 15 6 8 - - 0.0
04/01:30pm 14.8 11.7 5.6 54 4.4 NNW 11 15 6 8 - - 0.0
04/01:00pm 15.7 12.7 5.9 52 4.7 NNW 11 15 6 8 - - 0.0
04/12:30pm 15.9 13.3 6.3 53 4.7 NNW 9 15 5 8 - - 0.0
04/12:00pm 14.4 11.4 6.0 57 4.0 N 11 17 6 9 - - 0.0
04/11:30am 13.6 10.5 5.5 58 3.8 NNW 11 17 6 9 - - 0.0
04/11:00am 13.5 10.3 5.2 57 3.9 NNW 11 15 6 8 - - 0.0
04/10:30am 14.0 10.9 5.4 56 4.1 N 11 17 6 9 - - 0.0
04/10:00am 13.9 10.9 5.8 58 3.8 N 11 17 6 9 - - 0.0
04/09:30am 12.7 10.6 5.8 63 3.2 NNE 6 11 3 6 - - 0.0
04/09:00am 11.0 8.7 5.5 69 2.5 NE 7 11 4 6 - - 0.0
04/08:30am 9.7 6.9 5.3 74 2.0 NE 9 17 5 9 - - 0.0
04/08:00am 9.1 6.3 5.1 76 1.8 ENE 9 13 5 7 - - 0.0
04/07:30am 9.0 6.5 5.0 76 1.8 NE 7 11 4 6 - - 0.0
04/07:00am 8.7 5.5 5.1 78 1.6 NNE 11 13 6 7 - - 0.0
04/06:30am 8.2 5.9 5.0 80 1.4 NNE 6 7 3 4 - - 0.0
04/06:00am 7.8 5.5 4.9 82 1.3 NE 6 6 3 3 - - 0.0
04/05:30am 7.2 5.6 4.5 83 1.2 S 2 4 1 2 - - 0.0
04/05:00am 7.4 6.2 4.5 82 1.3 CALM 0 2 0 1 - - 0.0
04/04:30am 8.5 6.2 4.9 78 1.6 NE 6 9 3 5 - - 0.0
04/04:00am 8.0 5.8 5.1 82 1.3 NE 6 9 3 5 - - 0.0
04/03:30am 7.6 6.0 4.7 82 1.3 NE 2 7 1 4 - - 0.0
04/03:00am 7.7 5.2 5.0 83 1.2 NE 7 7 4 4 - - 0.0
04/02:30am 7.5 5.0 4.6 82 1.3 ENE 7 7 4 4 - - 0.0
04/02:00am 7.5 5.1 4.3 80 1.4 NE 6 7 3 4 - - 0.0
04/01:30am 7.5 5.4 3.7 77 1.6 ENE 4 6 2 3 - - 0.0
04/01:00am 7.8 5.7 3.8 76 1.7 ENE 4 4 2 2 - - 0.0
04/12:30am 8.1 5.6 3.6 73 1.9 ENE 6 7 3 4 - - 0.0
04/12:00am 9.0 6.5 3.8 70 2.3 ENE 6 7 3 4 - - 0.0
 
Date/Time
CST
Tmp

°C
App
Tmp
°C
Dew
Point
°C
Rel
Hum
%
Delta-T

°C
Wind Press
QNH
hPa
Press
MSL
hPa
Rain
since
9 am
mm
Dir
 
Spd
km/h
Gust
km/h
Spd
kts
Gust
kts
03/11:30pm 9.2 6.7 4.0 70 2.3 ENE 6 7 3 4 - - 0.0
03/11:00pm 8.8 6.2 4.2 73 2.0 NE 7 9 4 5 - - 0.0
03/10:30pm 9.0 7.3 4.0 71 2.2 NE 2 6 1 3 - - 0.0
03/10:00pm 9.5 7.1 4.1 69 2.4 ENE 6 6 3 3 - - 0.0
03/09:30pm 9.2 7.2 4.4 72 2.1 ENE 4 6 2 3 - - 0.0
03/09:00pm 9.3 7.7 4.5 72 2.1 ENE 2 4 1 2 - - 0.0
03/08:30pm 9.5 7.9 4.7 72 2.1 NE 2 4 1 2 - - 0.0
03/08:00pm 9.9 7.6 4.9 71 2.3 ENE 6 7 3 4 - - 0.0
03/07:30pm 10.0 7.8 5.2 72 2.2 ENE 6 9 3 5 - - 0.0
03/07:00pm 10.1 7.9 5.3 72 2.2 ENE 6 7 3 4 - - 0.0
03/06:30pm 10.4 8.6 5.2 70 2.4 NE 4 6 2 3 - - 0.0
03/06:00pm 10.6 8.8 5.2 69 2.5 NNE 4 6 2 3 - - 0.0
03/05:30pm 10.7 8.8 5.0 68 2.6 NNW 4 6 2 3 - - 0.0
03/05:00pm 11.2 9.0 5.1 66 2.8 N 6 7 3 4 - - 0.0
03/04:30pm 11.4 9.5 4.8 64 3.0 NNW 4 6 2 3 - - 0.0
03/04:00pm 11.8 9.3 5.0 63 3.1 NW 7 13 4 7 - - 0.0
03/03:30pm 11.8 9.3 3.8 58 3.6 NW 6 7 3 4 - - 0.0
03/03:00pm 11.8 9.4 4.3 60 3.4 NW 6 9 3 5 - - 0.0
03/02:30pm 12.0 8.9 3.5 56 3.8 NNW 9 15 5 8 - - 0.0
03/02:00pm 12.3 8.8 3.5 55 3.9 NNW 11 17 6 9 - - 0.0
03/01:30pm 12.8 10.3 4.5 57 3.8 NNW 7 11 4 6 - - 0.0
03/01:00pm 11.8 8.7 3.6 57 3.6 NNW 9 15 5 8 - - 0.0
03/12:30pm 11.9 9.4 3.9 58 3.6 NW 6 11 3 6 - - 0.0
03/12:00pm 12.0 9.3 2.7 53 4.1 NNW 6 9 3 5 - - 0.0
03/11:30am 11.3 8.5 3.3 58 3.5 NW 7 11 4 6 - - 0.0
03/11:00am 11.5 9.1 4.3 61 3.2 WNW 6 7 3 4 - - 0.0
03/10:30am 11.2 9.2 4.4 63 3.1 NW 4 6 2 3 - - 0.0
03/10:00am 10.8 8.7 3.8 62 3.1 NNE 4 7 2 4 - - 0.0
03/09:30am 10.0 7.3 2.8 61 3.1 NE 6 9 3 5 - - 0.0
03/09:00am 8.7 6.0 2.7 66 2.5 ENE 6 7 3 4 - - 0.0
03/08:30am 7.3 4.0 2.6 72 2.0 ENE 9 13 5 7 - - 0.0
03/08:00am 5.6 3.2 1.9 77 1.5 ENE 4 6 2 3 - - 0.0
03/07:30am 5.0 2.4 1.1 76 1.5 ENE 4 7 2 4 - - 0.0
03/07:00am 5.4 2.5 1.3 75 1.6 ENE 6 9 3 5 - - 0.0
03/06:30am 5.9 2.8 1.2 72 1.9 E 7 9 4 5 - - 0.0
03/06:00am 7.2 3.4 1.7 68 2.2 ENE 11 13 6 7 - - 0.0
03/05:30am 7.8 4.0 1.6 65 2.5 ENE 11 13 6 7 - - 0.0
03/05:00am 7.7 3.9 1.8 66 2.4 ENE 11 13 6 7 - - 0.0
03/04:30am 6.3 3.3 1.8 73 1.8 ENE 7 9 4 5 - - 0.0
03/04:00am 6.4 3.3 1.3 70 2.0 ENE 7 9 4 5 - - 0.0
03/03:30am 7.6 4.6 1.7 66 2.4 ENE 7 11 4 6 - - 0.0
03/03:00am 7.8 4.4 2.1 67 2.4 ENE 9 11 5 6 - - 0.0
03/02:30am 8.1 4.7 2.1 66 2.5 ENE 9 11 5 6 - - 0.0
03/02:00am 8.0 4.4 2.7 69 2.2 NE 11 13 6 7 - - 0.0
03/01:30am 8.2 4.7 3.5 72 2.0 NE 11 15 6 8 - - 0.0
03/01:00am 7.7 4.6 3.6 75 1.8 ENE 9 13 5 7 - - 0.0
03/12:30am 8.0 4.5 3.7 74 1.9 ENE 11 19 6 10 - - 0.0
03/12:00am 8.1 4.7 3.8 74 1.9 E 11 15 6 8 - - 0.0
 
Date/Time
CST
Tmp

°C
App
Tmp
°C
Dew
Point
°C
Rel
Hum
%
Delta-T

°C
Wind Press
QNH
hPa
Press
MSL
hPa
Rain
since
9 am
mm
Dir
 
Spd
km/h
Gust
km/h
Spd
kts
Gust
kts
02/11:30pm 7.9 4.8 3.6 74 1.8 E 9 13 5 7 - - 0.0
02/11:00pm 7.2 4.5 3.6 78 1.5 E 7 13 4 7 - - 0.0
02/10:30pm 6.5 3.7 3.1 79 1.4 ESE 7 9 4 5 - - 0.0
02/10:00pm 7.3 4.2 3.7 78 1.5 ESE 9 13 5 7 - - 0.0
02/09:30pm 7.7 4.2 3.7 76 1.7 E 11 15 6 8 - - 0.0
02/09:00pm 7.7 5.0 3.7 76 1.7 E 7 9 4 5 - - 0.0
02/08:30pm 8.1 5.6 3.6 73 1.9 E 6 9 3 5 - - 0.0
02/08:00pm 8.3 4.9 4.1 75 1.8 E 11 13 6 7 - - 0.0
02/07:30pm 9.1 6.1 4.1 71 2.2 E 9 11 5 6 - - 0.0
02/07:00pm 9.5 6.9 4.3 70 2.3 ESE 7 11 4 6 - - 0.0
02/06:30pm 9.6 6.2 4.0 68 2.5 ESE 11 13 6 7 - - 0.0
02/06:00pm 10.2 7.1 3.5 63 2.9 ESE 9 11 5 6 - - 0.0
02/05:30pm 11.0 8.2 3.3 59 3.4 SE 7 9 4 5 - - 0.0
02/05:00pm 11.9 8.8 3.4 56 3.8 SSE 9 15 5 8 - - 0.0
02/04:30pm 13.1 9.2 3.5 52 4.3 SSE 13 17 7 9 - - 0.0
02/04:00pm 13.4 9.5 3.5 51 4.5 SSE 13 19 7 10 - - 0.0
02/03:30pm 14.3 10.6 4.6 52 4.5 SSE 13 19 7 10 - - 0.0
02/03:00pm 14.9 10.5 4.6 50 4.8 S 17 24 9 13 - - 0.0
02/02:30pm 15.7 12.8 4.4 47 5.3 S 9 20 5 11 - - 0.0
02/02:00pm 15.3 11.1 5.8 53 4.6 S 17 24 9 13 - - 0.0
02/01:30pm 15.2 12.3 4.9 50 4.8 WSW 9 15 5 8 - - 0.0
02/01:00pm 14.8 11.9 4.8 51 4.7 SW 9 17 5 9 - - 0.0
02/12:30pm 14.5 11.6 4.5 51 4.6 SW 9 19 5 10 - - 0.0
02/12:00pm 15.0 11.5 5.5 53 4.5 SW 13 22 7 12 - - 0.0
02/11:30am 15.2 12.9 7.3 59 3.9 SW 9 15 5 8 - - 0.0
02/11:00am 14.7 12.7 7.3 61 3.6 SSW 7 17 4 9 - - 0.0
02/10:30am 14.3 12.9 8.7 69 2.8 SW 6 19 3 10 - - 0.0
02/10:00am 13.6 12.2 9.5 76 2.1 W 7 13 4 7 - - 0.0
02/09:30am 13.8 13.5 10.2 79 1.9 NE 2 4 1 2 - - 0.0
02/09:00am 12.3 11.4 9.3 82 1.5 NE 4 6 2 3 - - 0.0
02/08:30am 11.3 9.9 8.9 85 1.2 NE 6 9 3 5 - - 0.0
02/08:00am 11.3 10.3 8.9 85 1.2 NNE 4 7 2 4 - - 0.0
02/07:30am 11.2 10.2 8.8 85 1.2 NNE 4 9 2 5 - - 0.0
02/07:00am 10.9 8.4 8.0 82 1.4 N 11 13 6 7 - - 0.0
02/06:30am 10.8 8.9 7.7 81 1.5 NNE 7 11 4 6 - - 0.0
02/06:00am 10.9 8.6 7.6 80 1.6 NNE 9 13 5 7 - - 0.0
02/05:30am 11.2 9.1 8.1 81 1.5 N 9 15 5 8 - - 0.0
02/05:00am 10.8 7.0 7.5 80 1.6 N 17 22 9 12 - - 0.0
02/04:30am 10.5 7.3 7.0 79 1.7 NNE 13 19 7 10 - - 0.0
02/04:00am 10.4 6.5 6.9 79 1.7 N 17 24 9 13 - - 0.0
02/03:30am 10.8 7.7 7.3 79 1.7 N 13 17 7 9 - - 0.0
02/03:00am 11.1 8.1 7.6 79 1.7 N 13 19 7 10 - - 0.0
02/02:30am 11.0 7.9 7.3 78 1.8 N 13 20 7 11 - - 0.0
02/02:00am 11.1 7.7 7.6 79 1.7 N 15 20 8 11 - - 0.0
02/01:30am 11.3 7.4 7.2 76 2.0 N 17 22 9 12 - - 0.0
02/01:00am 11.5 8.0 7.0 74 2.2 N 15 24 8 13 - - 0.0
02/12:30am 11.7 8.8 6.6 71 2.4 N 11 19 6 10 - - 0.0
02/12:00am 12.2 8.6 6.9 70 2.5 NNW 15 20 8 11 - - 0.0
 
Date/Time
CST
Tmp

°C
App
Tmp
°C
Dew
Point
°C
Rel
Hum
%
Delta-T

°C
Wind Press
QNH
hPa
Press
MSL
hPa
Rain
since
9 am
mm
Dir
 
Spd
km/h
Gust
km/h
Spd
kts
Gust
kts
01/11:30pm 12.3 8.8 5.5 63 3.2 NNW 13 20 7 11 - - 0.0
01/11:00pm 12.3 8.7 5.0 61 3.4 NNW 13 20 7 11 - - 0.0
01/10:30pm 12.2 8.9 6.3 67 2.8 NW 13 24 7 13 - - 0.0
01/10:00pm 12.2 9.3 6.3 67 2.8 NW 11 19 6 10 - - 0.0
01/09:30pm 12.1 9.5 5.9 66 2.9 NW 9 15 5 8 - - 0.0

Latest Capital City Observations: Canberra | Sydney | Melbourne | Brisbane | Adelaide | Perth | Hobart | Darwin

Other Formats:

Comma delimited format used in spreadsheet applications
http://www.bom.gov.au/fwo/IDS60901/IDS60901.94808.axf

JavaScript Object Notation format (JSON) in row-major order
http://www.bom.gov.au/fwo/IDS60901/IDS60901.94808.json